sensor_id;sensor_type;location;lat;lon;timestamp;P1;durP1;ratioP1;P2;durP2;ratioP2
5704;SDS011;2877;48.238;11.160;2024-03-02T00:00:15;10.20;;;7.93;;
5704;SDS011;2877;48.238;11.160;2024-03-02T00:02:44;12.73;;;9.23;;
5704;SDS011;2877;48.238;11.160;2024-03-02T00:05:11;10.93;;;8.50;;
5704;SDS011;2877;48.238;11.160;2024-03-02T00:07:44;10.60;;;8.73;;
5704;SDS011;2877;48.238;11.160;2024-03-02T00:10:11;11.97;;;9.77;;
5704;SDS011;2877;48.238;11.160;2024-03-02T00:12:41;12.70;;;10.40;;
5704;SDS011;2877;48.238;11.160;2024-03-02T00:15:18;14.17;;;10.57;;
5704;SDS011;2877;48.238;11.160;2024-03-02T00:18:12;13.90;;;10.40;;
5704;SDS011;2877;48.238;11.160;2024-03-02T00:20:39;14.23;;;10.27;;
5704;SDS011;2877;48.238;11.160;2024-03-02T00:23:06;11.83;;;9.43;;
5704;SDS011;2877;48.238;11.160;2024-03-02T00:25:39;13.70;;;10.70;;
5704;SDS011;2877;48.238;11.160;2024-03-02T00:28:18;14.93;;;10.10;;
5704;SDS011;2877;48.238;11.160;2024-03-02T00:33:34;14.97;;;11.13;;
5704;SDS011;2877;48.238;11.160;2024-03-02T00:36:04;14.40;;;10.40;;
5704;SDS011;2877;48.238;11.160;2024-03-02T00:38:31;13.87;;;10.17;;
5704;SDS011;2877;48.238;11.160;2024-03-02T00:40:58;14.43;;;10.30;;
5704;SDS011;2877;48.238;11.160;2024-03-02T00:46:11;13.83;;;9.73;;
5704;SDS011;2877;48.238;11.160;2024-03-02T00:48:37;12.77;;;10.40;;
5704;SDS011;2877;48.238;11.160;2024-03-02T00:51:03;13.20;;;9.70;;
5704;SDS011;2877;48.238;11.160;2024-03-02T00:53:29;12.30;;;10.17;;
5704;SDS011;2877;48.238;11.160;2024-03-02T00:55:56;12.00;;;9.63;;
5704;SDS011;2877;48.238;11.160;2024-03-02T00:58:21;12.87;;;9.97;;
5704;SDS011;2877;48.238;11.160;2024-03-02T01:00:47;14.50;;;11.00;;
5704;SDS011;2877;48.238;11.160;2024-03-02T01:03:13;13.17;;;10.00;;
5704;SDS011;2877;48.238;11.160;2024-03-02T01:05:44;13.37;;;9.73;;
5704;SDS011;2877;48.238;11.160;2024-03-02T01:08:10;12.33;;;9.67;;
5704;SDS011;2877;48.238;11.160;2024-03-02T01:10:36;14.90;;;9.83;;
5704;SDS011;2877;48.238;11.160;2024-03-02T01:13:02;12.00;;;9.87;;
5704;SDS011;2877;48.238;11.160;2024-03-02T01:15:27;12.60;;;10.60;;
5704;SDS011;2877;48.238;11.160;2024-03-02T01:17:53;13.80;;;10.50;;
5704;SDS011;2877;48.238;11.160;2024-03-02T01:20:19;14.20;;;10.70;;
5704;SDS011;2877;48.238;11.160;2024-03-02T01:22:44;11.80;;;9.60;;
5704;SDS011;2877;48.238;11.160;2024-03-02T01:25:10;12.40;;;10.13;;
5704;SDS011;2877;48.238;11.160;2024-03-02T01:27:35;12.87;;;10.00;;
5704;SDS011;2877;48.238;11.160;2024-03-02T01:30:01;12.30;;;9.93;;
5704;SDS011;2877;48.238;11.160;2024-03-02T01:32:26;13.63;;;10.37;;
5704;SDS011;2877;48.238;11.160;2024-03-02T01:34:52;14.43;;;10.77;;
5704;SDS011;2877;48.238;11.160;2024-03-02T01:37:17;14.67;;;10.47;;
5704;SDS011;2877;48.238;11.160;2024-03-02T01:39:43;13.47;;;10.33;;
5704;SDS011;2877;48.238;11.160;2024-03-02T01:42:08;13.90;;;10.53;;
5704;SDS011;2877;48.238;11.160;2024-03-02T01:44:35;13.27;;;10.30;;
5704;SDS011;2877;48.238;11.160;2024-03-02T01:47:01;13.57;;;10.20;;
5704;SDS011;2877;48.238;11.160;2024-03-02T01:49:27;11.93;;;9.57;;
5704;SDS011;2877;48.238;11.160;2024-03-02T01:51:52;13.43;;;9.80;;
5704;SDS011;2877;48.238;11.160;2024-03-02T01:54:18;12.90;;;9.00;;
5704;SDS011;2877;48.238;11.160;2024-03-02T01:56:43;10.60;;;8.63;;
5704;SDS011;2877;48.238;11.160;2024-03-02T01:59:10;11.23;;;9.07;;
5704;SDS011;2877;48.238;11.160;2024-03-02T02:01:38;13.37;;;9.90;;
5704;SDS011;2877;48.238;11.160;2024-03-02T02:04:03;13.57;;;9.40;;
5704;SDS011;2877;48.238;11.160;2024-03-02T02:06:29;13.43;;;10.00;;
5704;SDS011;2877;48.238;11.160;2024-03-02T02:08:54;13.23;;;10.00;;
5704;SDS011;2877;48.238;11.160;2024-03-02T02:11:20;15.23;;;10.53;;
5704;SDS011;2877;48.238;11.160;2024-03-02T02:13:45;15.43;;;10.37;;
5704;SDS011;2877;48.238;11.160;2024-03-02T02:16:11;14.90;;;10.30;;
5704;SDS011;2877;48.238;11.160;2024-03-02T02:18:36;15.40;;;10.70;;
5704;SDS011;2877;48.238;11.160;2024-03-02T02:21:03;14.73;;;10.47;;
5704;SDS011;2877;48.238;11.160;2024-03-02T02:23:28;13.60;;;9.90;;
5704;SDS011;2877;48.238;11.160;2024-03-02T02:25:54;11.70;;;9.30;;
5704;SDS011;2877;48.238;11.160;2024-03-02T02:28:19;12.00;;;9.53;;
5704;SDS011;2877;48.238;11.160;2024-03-02T02:30:45;16.13;;;10.77;;
5704;SDS011;2877;48.238;11.160;2024-03-02T02:33:11;14.60;;;9.80;;
5704;SDS011;2877;48.238;11.160;2024-03-02T02:35:36;12.60;;;9.70;;
5704;SDS011;2877;48.238;11.160;2024-03-02T02:38:02;14.17;;;9.53;;
5704;SDS011;2877;48.238;11.160;2024-03-02T02:40:28;12.87;;;8.80;;
5704;SDS011;2877;48.238;11.160;2024-03-02T02:42:57;11.73;;;9.20;;
5704;SDS011;2877;48.238;11.160;2024-03-02T02:45:24;10.57;;;8.80;;
5704;SDS011;2877;48.238;11.160;2024-03-02T02:47:49;11.10;;;8.87;;
5704;SDS011;2877;48.238;11.160;2024-03-02T02:50:15;11.70;;;8.40;;
5704;SDS011;2877;48.238;11.160;2024-03-02T02:52:41;12.30;;;8.90;;
5704;SDS011;2877;48.238;11.160;2024-03-02T02:55:08;12.40;;;9.30;;
5704;SDS011;2877;48.238;11.160;2024-03-02T02:57:35;14.27;;;10.30;;
5704;SDS011;2877;48.238;11.160;2024-03-02T03:00:04;16.37;;;10.47;;
5704;SDS011;2877;48.238;11.160;2024-03-02T03:02:41;11.57;;;9.50;;
5704;SDS011;2877;48.238;11.160;2024-03-02T03:05:08;13.67;;;9.83;;
5704;SDS011;2877;48.238;11.160;2024-03-02T03:07:35;12.47;;;9.40;;
5704;SDS011;2877;48.238;11.160;2024-03-02T03:10:01;12.73;;;9.10;;
5704;SDS011;2877;48.238;11.160;2024-03-02T03:12:28;12.37;;;9.43;;
5704;SDS011;2877;48.238;11.160;2024-03-02T03:14:54;12.47;;;9.63;;
5704;SDS011;2877;48.238;11.160;2024-03-02T03:17:20;12.37;;;9.50;;
5704;SDS011;2877;48.238;11.160;2024-03-02T03:19:46;14.17;;;9.90;;
5704;SDS011;2877;48.238;11.160;2024-03-02T03:22:12;15.00;;;10.53;;
5704;SDS011;2877;48.238;11.160;2024-03-02T03:24:38;14.77;;;9.80;;
5704;SDS011;2877;48.238;11.160;2024-03-02T03:27:03;15.90;;;10.10;;
5704;SDS011;2877;48.238;11.160;2024-03-02T03:29:29;14.30;;;10.00;;
5704;SDS011;2877;48.238;11.160;2024-03-02T03:31:54;14.90;;;9.97;;
5704;SDS011;2877;48.238;11.160;2024-03-02T03:34:20;12.97;;;10.47;;
5704;SDS011;2877;48.238;11.160;2024-03-02T03:36:45;12.90;;;10.07;;
5704;SDS011;2877;48.238;11.160;2024-03-02T03:39:11;17.33;;;10.90;;
5704;SDS011;2877;48.238;11.160;2024-03-02T03:41:36;15.10;;;10.73;;
5704;SDS011;2877;48.238;11.160;2024-03-02T03:44:02;16.67;;;11.23;;
5704;SDS011;2877;48.238;11.160;2024-03-02T03:46:28;18.70;;;11.70;;
5704;SDS011;2877;48.238;11.160;2024-03-02T03:48:54;17.73;;;11.87;;
5704;SDS011;2877;48.238;11.160;2024-03-02T03:51:21;16.97;;;11.40;;
5704;SDS011;2877;48.238;11.160;2024-03-02T03:53:47;15.57;;;11.23;;
5704;SDS011;2877;48.238;11.160;2024-03-02T03:56:13;17.77;;;11.13;;
5704;SDS011;2877;48.238;11.160;2024-03-02T03:58:39;15.00;;;10.70;;
5704;SDS011;2877;48.238;11.160;2024-03-02T04:01:04;17.70;;;12.00;;
5704;SDS011;2877;48.238;11.160;2024-03-02T04:03:30;15.43;;;10.70;;
5704;SDS011;2877;48.238;11.160;2024-03-02T04:05:55;12.60;;;9.70;;
5704;SDS011;2877;48.238;11.160;2024-03-02T04:08:21;15.33;;;10.20;;
5704;SDS011;2877;48.238;11.160;2024-03-02T04:10:47;15.83;;;9.93;;
5704;SDS011;2877;48.238;11.160;2024-03-02T04:13:12;15.80;;;11.17;;
5704;SDS011;2877;48.238;11.160;2024-03-02T04:15:38;14.00;;;9.40;;
5704;SDS011;2877;48.238;11.160;2024-03-02T04:18:05;13.87;;;10.33;;
5704;SDS011;2877;48.238;11.160;2024-03-02T04:20:31;13.00;;;9.60;;
5704;SDS011;2877;48.238;11.160;2024-03-02T04:22:56;13.73;;;9.30;;
5704;SDS011;2877;48.238;11.160;2024-03-02T04:25:22;14.27;;;9.57;;
5704;SDS011;2877;48.238;11.160;2024-03-02T04:27:48;16.03;;;10.77;;
5704;SDS011;2877;48.238;11.160;2024-03-02T04:30:13;14.27;;;10.53;;
5704;SDS011;2877;48.238;11.160;2024-03-02T04:32:39;13.30;;;10.27;;
5704;SDS011;2877;48.238;11.160;2024-03-02T04:35:05;14.10;;;10.00;;
5704;SDS011;2877;48.238;11.160;2024-03-02T04:37:34;19.23;;;10.30;;
5704;SDS011;2877;48.238;11.160;2024-03-02T04:39:59;18.33;;;11.30;;
5704;SDS011;2877;48.238;11.160;2024-03-02T04:42:25;18.80;;;11.50;;
5704;SDS011;2877;48.238;11.160;2024-03-02T04:44:51;16.60;;;11.33;;
5704;SDS011;2877;48.238;11.160;2024-03-02T04:47:16;18.10;;;11.87;;
5704;SDS011;2877;48.238;11.160;2024-03-02T04:49:42;15.47;;;11.17;;
5704;SDS011;2877;48.238;11.160;2024-03-02T04:52:08;15.60;;;11.00;;
5704;SDS011;2877;48.238;11.160;2024-03-02T04:54:34;18.00;;;11.30;;
5704;SDS011;2877;48.238;11.160;2024-03-02T04:57:19;17.00;;;11.47;;
5704;SDS011;2877;48.238;11.160;2024-03-02T04:59:45;18.47;;;12.73;;
5704;SDS011;2877;48.238;11.160;2024-03-02T05:02:10;14.37;;;11.00;;
5704;SDS011;2877;48.238;11.160;2024-03-02T05:04:35;16.70;;;11.43;;
5704;SDS011;2877;48.238;11.160;2024-03-02T05:07:01;14.73;;;10.13;;
5704;SDS011;2877;48.238;11.160;2024-03-02T05:09:27;15.10;;;10.60;;
5704;SDS011;2877;48.238;11.160;2024-03-02T05:11:52;14.63;;;9.80;;
5704;SDS011;2877;48.238;11.160;2024-03-02T05:14:45;15.13;;;10.30;;
5704;SDS011;2877;48.238;11.160;2024-03-02T05:17:10;15.60;;;10.33;;
5704;SDS011;2877;48.238;11.160;2024-03-02T05:19:36;12.93;;;9.70;;
5704;SDS011;2877;48.238;11.160;2024-03-02T05:22:02;14.00;;;10.30;;
5704;SDS011;2877;48.238;11.160;2024-03-02T05:24:28;15.23;;;10.30;;
5704;SDS011;2877;48.238;11.160;2024-03-02T05:26:53;15.80;;;11.43;;
5704;SDS011;2877;48.238;11.160;2024-03-02T05:29:19;14.00;;;10.20;;
5704;SDS011;2877;48.238;11.160;2024-03-02T05:31:45;12.13;;;9.47;;
5704;SDS011;2877;48.238;11.160;2024-03-02T05:34:10;14.77;;;10.00;;
5704;SDS011;2877;48.238;11.160;2024-03-02T05:36:36;15.70;;;11.20;;
5704;SDS011;2877;48.238;11.160;2024-03-02T05:39:03;12.93;;;9.43;;
5704;SDS011;2877;48.238;11.160;2024-03-02T05:41:34;15.23;;;10.77;;
5704;SDS011;2877;48.238;11.160;2024-03-02T05:44:00;16.47;;;10.40;;
5704;SDS011;2877;48.238;11.160;2024-03-02T05:46:26;14.37;;;10.10;;
5704;SDS011;2877;48.238;11.160;2024-03-02T05:48:51;14.17;;;10.03;;
5704;SDS011;2877;48.238;11.160;2024-03-02T05:51:17;13.30;;;9.93;;
5704;SDS011;2877;48.238;11.160;2024-03-02T05:53:42;15.67;;;10.20;;
5704;SDS011;2877;48.238;11.160;2024-03-02T05:56:08;16.23;;;10.93;;
5704;SDS011;2877;48.238;11.160;2024-03-02T05:58:33;14.73;;;10.80;;
5704;SDS011;2877;48.238;11.160;2024-03-02T06:01:16;16.40;;;11.67;;
5704;SDS011;2877;48.238;11.160;2024-03-02T06:03:43;16.43;;;11.20;;
5704;SDS011;2877;48.238;11.160;2024-03-02T06:06:08;14.33;;;10.50;;
5704;SDS011;2877;48.238;11.160;2024-03-02T06:08:34;14.13;;;10.53;;
5704;SDS011;2877;48.238;11.160;2024-03-02T06:11:00;14.93;;;10.37;;
5704;SDS011;2877;48.238;11.160;2024-03-02T06:13:25;16.30;;;10.87;;
5704;SDS011;2877;48.238;11.160;2024-03-02T06:15:51;19.10;;;11.47;;
5704;SDS011;2877;48.238;11.160;2024-03-02T06:18:17;17.53;;;10.97;;
5704;SDS011;2877;48.238;11.160;2024-03-02T06:20:43;17.00;;;11.50;;
5704;SDS011;2877;48.238;11.160;2024-03-02T06:23:08;16.17;;;11.80;;
5704;SDS011;2877;48.238;11.160;2024-03-02T06:25:34;18.53;;;12.73;;
5704;SDS011;2877;48.238;11.160;2024-03-02T06:27:59;19.17;;;12.40;;
5704;SDS011;2877;48.238;11.160;2024-03-02T06:30:25;16.87;;;12.03;;
5704;SDS011;2877;48.238;11.160;2024-03-02T06:32:50;21.57;;;13.77;;
5704;SDS011;2877;48.238;11.160;2024-03-02T06:35:16;18.03;;;11.60;;
5704;SDS011;2877;48.238;11.160;2024-03-02T06:37:41;16.30;;;11.80;;
5704;SDS011;2877;48.238;11.160;2024-03-02T06:40:07;20.30;;;11.17;;
5704;SDS011;2877;48.238;11.160;2024-03-02T06:42:34;17.33;;;10.27;;
5704;SDS011;2877;48.238;11.160;2024-03-02T06:45:00;12.70;;;9.50;;
5704;SDS011;2877;48.238;11.160;2024-03-02T06:47:26;14.53;;;10.17;;
5704;SDS011;2877;48.238;11.160;2024-03-02T06:49:52;13.20;;;9.70;;
5704;SDS011;2877;48.238;11.160;2024-03-02T06:52:18;12.70;;;8.90;;
5704;SDS011;2877;48.238;11.160;2024-03-02T06:54:43;14.50;;;10.17;;
5704;SDS011;2877;48.238;11.160;2024-03-02T06:57:09;13.97;;;10.43;;
5704;SDS011;2877;48.238;11.160;2024-03-02T06:59:35;13.77;;;9.73;;
5704;SDS011;2877;48.238;11.160;2024-03-02T07:02:00;15.50;;;10.33;;
5704;SDS011;2877;48.238;11.160;2024-03-02T07:04:26;15.13;;;10.60;;
5704;SDS011;2877;48.238;11.160;2024-03-02T07:06:52;15.10;;;10.83;;
5704;SDS011;2877;48.238;11.160;2024-03-02T07:09:17;19.83;;;12.30;;
5704;SDS011;2877;48.238;11.160;2024-03-02T07:11:47;19.87;;;11.90;;
5704;SDS011;2877;48.238;11.160;2024-03-02T07:14:13;19.07;;;12.80;;
5704;SDS011;2877;48.238;11.160;2024-03-02T07:16:38;20.07;;;12.90;;
5704;SDS011;2877;48.238;11.160;2024-03-02T07:19:05;19.97;;;13.90;;
5704;SDS011;2877;48.238;11.160;2024-03-02T07:21:31;17.27;;;12.27;;
5704;SDS011;2877;48.238;11.160;2024-03-02T07:23:58;16.23;;;11.20;;
5704;SDS011;2877;48.238;11.160;2024-03-02T07:26:24;15.47;;;11.40;;
5704;SDS011;2877;48.238;11.160;2024-03-02T07:28:50;14.17;;;10.83;;
5704;SDS011;2877;48.238;11.160;2024-03-02T07:31:16;14.50;;;10.23;;
5704;SDS011;2877;48.238;11.160;2024-03-02T07:33:45;13.27;;;10.80;;
5704;SDS011;2877;48.238;11.160;2024-03-02T07:36:11;12.33;;;10.10;;
5704;SDS011;2877;48.238;11.160;2024-03-02T07:38:37;14.87;;;11.00;;
5704;SDS011;2877;48.238;11.160;2024-03-02T07:41:03;13.80;;;10.13;;
5704;SDS011;2877;48.238;11.160;2024-03-02T07:43:29;12.90;;;9.77;;
5704;SDS011;2877;48.238;11.160;2024-03-02T07:45:56;12.20;;;9.07;;
5704;SDS011;2877;48.238;11.160;2024-03-02T07:48:22;13.93;;;10.50;;
5704;SDS011;2877;48.238;11.160;2024-03-02T07:50:47;15.07;;;9.93;;
5704;SDS011;2877;48.238;11.160;2024-03-02T07:53:13;10.50;;;8.97;;
5704;SDS011;2877;48.238;11.160;2024-03-02T07:55:39;12.57;;;10.37;;
5704;SDS011;2877;48.238;11.160;2024-03-02T07:58:05;11.83;;;8.63;;
5704;SDS011;2877;48.238;11.160;2024-03-02T08:00:32;10.60;;;9.30;;
5704;SDS011;2877;48.238;11.160;2024-03-02T08:02:57;11.63;;;8.53;;
5704;SDS011;2877;48.238;11.160;2024-03-02T08:05:23;11.30;;;8.90;;
5704;SDS011;2877;48.238;11.160;2024-03-02T08:07:49;10.57;;;8.67;;
5704;SDS011;2877;48.238;11.160;2024-03-02T08:10:18;10.20;;;8.10;;
5704;SDS011;2877;48.238;11.160;2024-03-02T08:12:44;10.77;;;8.90;;
5704;SDS011;2877;48.238;11.160;2024-03-02T08:15:09;12.20;;;8.80;;
5704;SDS011;2877;48.238;11.160;2024-03-02T08:17:35;8.80;;;7.07;;
5704;SDS011;2877;48.238;11.160;2024-03-02T08:20:00;7.80;;;6.97;;
5704;SDS011;2877;48.238;11.160;2024-03-02T08:22:27;7.87;;;6.70;;
5704;SDS011;2877;48.238;11.160;2024-03-02T08:24:52;10.27;;;6.63;;
5704;SDS011;2877;48.238;11.160;2024-03-02T08:27:19;7.27;;;5.97;;
5704;SDS011;2877;48.238;11.160;2024-03-02T08:29:45;7.10;;;6.40;;
5704;SDS011;2877;48.238;11.160;2024-03-02T08:32:10;6.70;;;6.03;;
5704;SDS011;2877;48.238;11.160;2024-03-02T08:34:36;6.37;;;5.43;;
5704;SDS011;2877;48.238;11.160;2024-03-02T08:37:01;6.70;;;5.77;;
5704;SDS011;2877;48.238;11.160;2024-03-02T08:39:27;7.57;;;5.50;;
5704;SDS011;2877;48.238;11.160;2024-03-02T08:41:53;7.10;;;5.90;;
5704;SDS011;2877;48.238;11.160;2024-03-02T08:44:19;6.60;;;5.60;;
5704;SDS011;2877;48.238;11.160;2024-03-02T08:46:45;7.13;;;6.10;;
5704;SDS011;2877;48.238;11.160;2024-03-02T08:49:10;6.37;;;5.70;;
5704;SDS011;2877;48.238;11.160;2024-03-02T08:51:36;6.67;;;5.60;;
5704;SDS011;2877;48.238;11.160;2024-03-02T08:54:02;6.00;;;4.80;;
5704;SDS011;2877;48.238;11.160;2024-03-02T08:56:28;5.73;;;5.13;;
5704;SDS011;2877;48.238;11.160;2024-03-02T08:58:55;6.60;;;5.37;;
5704;SDS011;2877;48.238;11.160;2024-03-02T09:01:21;5.20;;;4.70;;
5704;SDS011;2877;48.238;11.160;2024-03-02T09:03:46;5.10;;;4.50;;
5704;SDS011;2877;48.238;11.160;2024-03-02T09:06:14;6.80;;;4.37;;
5704;SDS011;2877;48.238;11.160;2024-03-02T09:08:41;4.60;;;4.20;;
5704;SDS011;2877;48.238;11.160;2024-03-02T09:11:08;6.80;;;4.40;;
5704;SDS011;2877;48.238;11.160;2024-03-02T09:13:34;4.57;;;4.10;;
5704;SDS011;2877;48.238;11.160;2024-03-02T09:16:00;5.60;;;3.87;;
5704;SDS011;2877;48.238;11.160;2024-03-02T09:18:25;4.20;;;3.70;;
5704;SDS011;2877;48.238;11.160;2024-03-02T09:20:51;4.60;;;4.03;;
5704;SDS011;2877;48.238;11.160;2024-03-02T09:23:16;4.13;;;3.73;;
5704;SDS011;2877;48.238;11.160;2024-03-02T09:25:42;4.40;;;3.40;;
5704;SDS011;2877;48.238;11.160;2024-03-02T09:28:07;4.67;;;4.27;;
5704;SDS011;2877;48.238;11.160;2024-03-02T09:30:33;7.03;;;5.00;;
5704;SDS011;2877;48.238;11.160;2024-03-02T09:32:59;5.30;;;4.80;;
5704;SDS011;2877;48.238;11.160;2024-03-02T09:35:24;5.17;;;4.60;;
5704;SDS011;2877;48.238;11.160;2024-03-02T09:37:50;4.50;;;4.10;;
5704;SDS011;2877;48.238;11.160;2024-03-02T09:40:16;18.27;;;9.97;;
5704;SDS011;2877;48.238;11.160;2024-03-02T09:42:42;5.73;;;3.93;;
5704;SDS011;2877;48.238;11.160;2024-03-02T09:45:08;4.43;;;4.03;;
5704;SDS011;2877;48.238;11.160;2024-03-02T09:47:34;4.97;;;4.50;;
5704;SDS011;2877;48.238;11.160;2024-03-02T09:50:00;4.83;;;4.20;;
5704;SDS011;2877;48.238;11.160;2024-03-02T09:52:26;5.93;;;4.40;;
5704;SDS011;2877;48.238;11.160;2024-03-02T09:54:51;5.43;;;4.93;;
5704;SDS011;2877;48.238;11.160;2024-03-02T09:57:17;5.40;;;4.77;;
5704;SDS011;2877;48.238;11.160;2024-03-02T09:59:43;5.73;;;5.20;;
5704;SDS011;2877;48.238;11.160;2024-03-02T10:02:10;7.23;;;6.00;;
5704;SDS011;2877;48.238;11.160;2024-03-02T10:04:36;6.93;;;5.80;;
5704;SDS011;2877;48.238;11.160;2024-03-02T10:07:14;7.60;;;5.97;;
5704;SDS011;2877;48.238;11.160;2024-03-02T10:09:41;4.57;;;4.17;;
5704;SDS011;2877;48.238;11.160;2024-03-02T10:12:08;5.20;;;4.70;;
5704;SDS011;2877;48.238;11.160;2024-03-02T10:14:36;5.20;;;4.60;;
5704;SDS011;2877;48.238;11.160;2024-03-02T10:17:06;7.87;;;5.73;;
5704;SDS011;2877;48.238;11.160;2024-03-02T10:19:33;7.17;;;6.20;;
5704;SDS011;2877;48.238;11.160;2024-03-02T10:22:06;11.73;;;7.30;;
5704;SDS011;2877;48.238;11.160;2024-03-02T10:24:37;23.50;;;6.70;;
5704;SDS011;2877;48.238;11.160;2024-03-02T10:27:10;11.40;;;6.20;;
5704;SDS011;2877;48.238;11.160;2024-03-02T10:29:46;5.50;;;5.00;;
5704;SDS011;2877;48.238;11.160;2024-03-02T10:32:12;4.70;;;3.90;;
5704;SDS011;2877;48.238;11.160;2024-03-02T10:34:44;4.53;;;4.13;;
5704;SDS011;2877;48.238;11.160;2024-03-02T10:37:12;13.80;;;6.27;;
5704;SDS011;2877;48.238;11.160;2024-03-02T10:39:39;14.47;;;7.17;;
5704;SDS011;2877;48.238;11.160;2024-03-02T10:42:07;5.80;;;4.80;;
5704;SDS011;2877;48.238;11.160;2024-03-02T10:44:33;7.93;;;6.37;;
5704;SDS011;2877;48.238;11.160;2024-03-02T10:47:00;9.00;;;6.13;;
5704;SDS011;2877;48.238;11.160;2024-03-02T10:49:28;7.80;;;6.40;;
5704;SDS011;2877;48.238;11.160;2024-03-02T10:51:58;9.47;;;7.10;;
5704;SDS011;2877;48.238;11.160;2024-03-02T10:54:24;11.40;;;8.60;;
5704;SDS011;2877;48.238;11.160;2024-03-02T10:57:00;10.60;;;8.67;;
5704;SDS011;2877;48.238;11.160;2024-03-02T10:59:34;9.80;;;8.10;;
5704;SDS011;2877;48.238;11.160;2024-03-02T11:02:02;10.27;;;8.37;;
5704;SDS011;2877;48.238;11.160;2024-03-02T11:04:29;11.20;;;8.50;;
5704;SDS011;2877;48.238;11.160;2024-03-02T11:06:59;10.00;;;8.13;;
5704;SDS011;2877;48.238;11.160;2024-03-02T11:09:33;10.73;;;7.93;;
5704;SDS011;2877;48.238;11.160;2024-03-02T11:12:03;12.53;;;9.40;;
5704;SDS011;2877;48.238;11.160;2024-03-02T11:14:37;12.50;;;7.57;;
5704;SDS011;2877;48.238;11.160;2024-03-02T11:17:08;12.23;;;8.67;;
5704;SDS011;2877;48.238;11.160;2024-03-02T11:19:34;10.40;;;8.30;;
5704;SDS011;2877;48.238;11.160;2024-03-02T11:22:02;10.63;;;8.33;;
5704;SDS011;2877;48.238;11.160;2024-03-02T11:24:28;12.40;;;8.80;;
5704;SDS011;2877;48.238;11.160;2024-03-02T11:26:58;13.73;;;8.70;;
5704;SDS011;2877;48.238;11.160;2024-03-02T11:32:04;11.90;;;8.53;;
5704;SDS011;2877;48.238;11.160;2024-03-02T11:34:44;10.83;;;8.47;;
5704;SDS011;2877;48.238;11.160;2024-03-02T11:37:17;12.40;;;8.43;;
5704;SDS011;2877;48.238;11.160;2024-03-02T11:39:45;15.00;;;8.80;;
5704;SDS011;2877;48.238;11.160;2024-03-02T11:42:12;12.23;;;8.07;;
5704;SDS011;2877;48.238;11.160;2024-03-02T11:44:39;10.80;;;8.50;;
5704;SDS011;2877;48.238;11.160;2024-03-02T11:47:11;10.57;;;7.77;;
5704;SDS011;2877;48.238;11.160;2024-03-02T11:49:40;11.17;;;8.70;;
5704;SDS011;2877;48.238;11.160;2024-03-02T11:52:06;12.97;;;9.00;;
5704;SDS011;2877;48.238;11.160;2024-03-02T11:54:33;12.97;;;8.93;;
5704;SDS011;2877;48.238;11.160;2024-03-02T11:57:02;13.43;;;9.00;;
5704;SDS011;2877;48.238;11.160;2024-03-02T11:59:31;13.30;;;8.93;;
5704;SDS011;2877;48.238;11.160;2024-03-02T12:01:56;10.93;;;9.17;;
5704;SDS011;2877;48.238;11.160;2024-03-02T12:04:23;16.10;;;8.60;;
5704;SDS011;2877;48.238;11.160;2024-03-02T12:06:55;13.63;;;9.20;;
5704;SDS011;2877;48.238;11.160;2024-03-02T12:09:21;14.23;;;8.07;;
5704;SDS011;2877;48.238;11.160;2024-03-02T12:11:47;13.80;;;8.30;;
5704;SDS011;2877;48.238;11.160;2024-03-02T12:14:13;11.37;;;7.67;;
5704;SDS011;2877;48.238;11.160;2024-03-02T12:16:38;11.20;;;8.17;;
5704;SDS011;2877;48.238;11.160;2024-03-02T12:19:08;13.53;;;8.50;;
5704;SDS011;2877;48.238;11.160;2024-03-02T12:21:33;11.70;;;8.20;;
5704;SDS011;2877;48.238;11.160;2024-03-02T12:23:59;12.90;;;8.53;;
5704;SDS011;2877;48.238;11.160;2024-03-02T12:26:26;13.83;;;8.73;;
5704;SDS011;2877;48.238;11.160;2024-03-02T12:28:51;13.87;;;8.80;;
5704;SDS011;2877;48.238;11.160;2024-03-02T12:31:17;12.43;;;7.93;;
5704;SDS011;2877;48.238;11.160;2024-03-02T12:33:43;12.80;;;8.43;;
5704;SDS011;2877;48.238;11.160;2024-03-02T12:36:13;17.20;;;8.97;;
5704;SDS011;2877;48.238;11.160;2024-03-02T12:38:43;15.47;;;9.20;;
5704;SDS011;2877;48.238;11.160;2024-03-02T12:41:09;12.23;;;8.60;;
5704;SDS011;2877;48.238;11.160;2024-03-02T12:43:34;16.57;;;9.27;;
5704;SDS011;2877;48.238;11.160;2024-03-02T12:46:00;11.47;;;8.03;;
5704;SDS011;2877;48.238;11.160;2024-03-02T12:48:25;14.70;;;9.93;;
5704;SDS011;2877;48.238;11.160;2024-03-02T12:50:51;14.23;;;9.40;;
5704;SDS011;2877;48.238;11.160;2024-03-02T12:53:17;16.23;;;9.67;;
5704;SDS011;2877;48.238;11.160;2024-03-02T12:55:43;17.47;;;9.83;;
5704;SDS011;2877;48.238;11.160;2024-03-02T12:58:16;27.13;;;11.47;;
5704;SDS011;2877;48.238;11.160;2024-03-02T13:00:46;23.57;;;10.53;;
5704;SDS011;2877;48.238;11.160;2024-03-02T13:03:12;23.43;;;10.90;;
5704;SDS011;2877;48.238;11.160;2024-03-02T13:05:38;15.33;;;10.13;;
5704;SDS011;2877;48.238;11.160;2024-03-02T13:08:05;14.13;;;10.20;;
5704;SDS011;2877;48.238;11.160;2024-03-02T13:10:32;22.00;;;10.43;;
5704;SDS011;2877;48.238;11.160;2024-03-02T13:12:58;27.03;;;11.87;;
5704;SDS011;2877;48.238;11.160;2024-03-02T13:15:25;14.57;;;10.20;;
5704;SDS011;2877;48.238;11.160;2024-03-02T13:17:52;14.30;;;10.00;;
5704;SDS011;2877;48.238;11.160;2024-03-02T13:20:17;16.63;;;10.80;;
5704;SDS011;2877;48.238;11.160;2024-03-02T13:22:44;19.13;;;11.10;;
5704;SDS011;2877;48.238;11.160;2024-03-02T13:25:09;17.60;;;11.37;;
5704;SDS011;2877;48.238;11.160;2024-03-02T13:27:36;16.40;;;11.03;;
5704;SDS011;2877;48.238;11.160;2024-03-02T13:30:02;18.83;;;11.27;;
5704;SDS011;2877;48.238;11.160;2024-03-02T13:32:30;18.43;;;11.03;;
5704;SDS011;2877;48.238;11.160;2024-03-02T13:34:56;18.17;;;11.40;;
5704;SDS011;2877;48.238;11.160;2024-03-02T13:37:22;15.40;;;11.10;;
5704;SDS011;2877;48.238;11.160;2024-03-02T13:39:47;15.67;;;10.57;;
5704;SDS011;2877;48.238;11.160;2024-03-02T13:42:13;22.00;;;11.27;;
5704;SDS011;2877;48.238;11.160;2024-03-02T13:44:40;19.10;;;11.80;;
5704;SDS011;2877;48.238;11.160;2024-03-02T13:47:08;15.93;;;10.90;;
5704;SDS011;2877;48.238;11.160;2024-03-02T13:49:33;16.57;;;11.67;;
5704;SDS011;2877;48.238;11.160;2024-03-02T13:52:01;23.23;;;12.63;;
5704;SDS011;2877;48.238;11.160;2024-03-02T13:54:41;25.17;;;12.20;;
5704;SDS011;2877;48.238;11.160;2024-03-02T13:57:08;19.10;;;11.17;;
5704;SDS011;2877;48.238;11.160;2024-03-02T13:59:34;14.07;;;9.83;;
5704;SDS011;2877;48.238;11.160;2024-03-02T14:02:01;14.93;;;10.20;;
5704;SDS011;2877;48.238;11.160;2024-03-02T14:04:29;16.30;;;10.27;;
5704;SDS011;2877;48.238;11.160;2024-03-02T14:06:56;15.60;;;9.30;;
5704;SDS011;2877;48.238;11.160;2024-03-02T14:09:21;14.10;;;9.87;;
5704;SDS011;2877;48.238;11.160;2024-03-02T14:11:49;17.40;;;10.40;;
5704;SDS011;2877;48.238;11.160;2024-03-02T14:14:15;13.53;;;9.03;;
5704;SDS011;2877;48.238;11.160;2024-03-02T14:16:40;15.17;;;10.80;;
5704;SDS011;2877;48.238;11.160;2024-03-02T14:19:06;13.60;;;9.43;;
5704;SDS011;2877;48.238;11.160;2024-03-02T14:21:32;16.27;;;9.67;;
5704;SDS011;2877;48.238;11.160;2024-03-02T14:23:57;16.07;;;9.50;;
5704;SDS011;2877;48.238;11.160;2024-03-02T14:26:23;16.93;;;9.87;;
5704;SDS011;2877;48.238;11.160;2024-03-02T14:28:48;18.17;;;10.57;;
5704;SDS011;2877;48.238;11.160;2024-03-02T14:31:14;19.90;;;9.70;;
5704;SDS011;2877;48.238;11.160;2024-03-02T14:33:39;16.57;;;8.00;;
5704;SDS011;2877;48.238;11.160;2024-03-02T14:36:05;14.00;;;7.80;;
5704;SDS011;2877;48.238;11.160;2024-03-02T14:38:31;11.20;;;8.00;;
5704;SDS011;2877;48.238;11.160;2024-03-02T14:40:56;18.37;;;7.73;;
5704;SDS011;2877;48.238;11.160;2024-03-02T14:43:23;15.90;;;7.30;;
5704;SDS011;2877;48.238;11.160;2024-03-02T14:45:48;18.33;;;7.17;;
5704;SDS011;2877;48.238;11.160;2024-03-02T14:48:14;11.77;;;6.77;;